Arthur Brusco — WDC3449 — position and weather

sailwx.info

Track history (hours):
 
Tides and Currents Weather Stations Pressure Air Temp Water Temp Dewpoint Dewpoint Depression Visibility Wind Speed Wind Dir Waves Ship Positions

Arthur Brusco

Owner: Brusco Tug & Barge, Inc, Longview, WA. More information available from US FCC via Universal Licensing System and Coast Guard Vessel Documentation Center.

Last reported at 2016-Jul-28 02:33 UTC. Time now 2016-Jul-28 02:56 UTC.
Position N 37°49' W 122°29'.

Length 35 m; draft 3.2 m.

Type: Other ship. MMSI: 271040404.

Date/timePositionNaut miles runAvg speedWind from/ knotsBaromVisibWave heightAir tempDewpointWater temp
2016-Jul-28 02:33N 37°49' W 122°29'4 4.3
2016-Jul-28 01:33N 37°49' W 122°24'1 1.1
2016-Jul-28 00:33N 37°50' W 122°23'1 1.4
2016-Jul-27 23:33N 37°50' W 122°21'5 4.6
2016-Jul-27 22:33N 37°54' W 122°25'3 2.6
2016-Jul-27 21:33N 37°55' W 122°22'0 0.0
2016-Jul-27 20:33N 37°55' W 122°22'0 0.0
2016-Jul-27 19:33N 37°55' W 122°22'0 0.0
2016-Jul-27 18:24N 37°55' W 122°22'3 3.2
2016-Jul-27 17:33N 37°53' W 122°25'5 4.9
2016-Jul-27 16:34N 37°49' W 122°24'0 0.2
2016-Jul-27 15:33N 37°48' W 122°24'2 2.4
2016-Jul-27 14:33N 37°50' W 122°21'0 0.3
2016-Jul-27 13:33N 37°50' W 122°22'7 7.4
2016-Jul-27 12:33N 37°48' W 122°31'9 8.7
2016-Jul-27 11:33N 37°44' W 122°41'8 8.3
2016-Jul-27 10:33N 37°40' W 122°50'9 8.7
2016-Jul-27 09:33N 37°35' W 122°59'8 8.2
2016-Jul-27 08:33N 37°34' W 123°09'9 9.1
2016-Jul-27 07:33N 37°36' W 123°20'8 7.7
2016-Jul-27 06:33N 37°39' W 123°29'6 6.4
2016-Jul-27 05:33N 37°38' W 123°21'7 7.0
2016-Jul-27 04:33N 37°37' W 123°12'7 6.8
2016-Jul-27 03:33N 37°36' W 123°04'7 7.4
2016-Jul-27 02:33N 37°39' W 122°55'8 8.1
2016-Jul-27 01:33N 37°43' W 122°46'8 7.6
2016-Jul-27 00:33N 37°46' W 122°37'7 6.9
2016-Jul-26 23:33N 37°49' W 122°30'5 4.6
2016-Jul-26 22:34N 37°49' W 122°24'0 0.3
2016-Jul-26 21:33N 37°48' W 122°24'7 7.3
2016-Jul-26 20:33N 37°47' W 122°15'0 0.1
2016-Jul-26 19:33N 37°46' W 122°15'0 0.0
2016-Jul-26 18:33N 37°46' W 122°15'0 0.0
2016-Jul-26 17:33N 37°46' W 122°15'0 0.0
2016-Jul-26 16:33N 37°46' W 122°15'0 0.0
2016-Jul-26 15:33N 37°46' W 122°15'0 0.0
2016-Jul-26 14:33N 37°46' W 122°15'0 0.0
2016-Jul-26 13:33N 37°46' W 122°15'0 0.0
2016-Jul-26 12:33N 37°46' W 122°15'0 0.0
2016-Jul-26 11:33N 37°46' W 122°15'0 0.0
2016-Jul-26 10:34N 37°46' W 122°15'0 0.0
2016-Jul-26 09:33N 37°46' W 122°15'0 0.0
2016-Jul-26 08:33N 37°46' W 122°15'0 0.0
2016-Jul-26 07:34N 37°46' W 122°15'0 0.0
2016-Jul-26 06:34N 37°46' W 122°15'0 0.0
2016-Jul-26 05:34N 37°46' W 122°15'0 0.0
2016-Jul-26 04:33N 37°46' W 122°15'0 0.0
2016-Jul-26 03:33N 37°46' W 122°15'0 0.0
2016-Jul-26 02:33N 37°46' W 122°15'0 0.0
2016-Jul-26 01:33N 37°46' W 122°15'0 0.0
2016-Jul-26 00:33N 37°46' W 122°15'0 0.0
2016-Jul-25 23:33N 37°46' W 122°15'0 0.0
2016-Jul-25 22:34N 37°46' W 122°15'0 0.0
2016-Jul-25 21:33N 37°46' W 122°15'0 0.0
2016-Jul-25 20:34N 37°46' W 122°15'0 0.0
2016-Jul-25 19:33N 37°46' W 122°15'0 0.0
2016-Jul-25 18:33N 37°46' W 122°15'0 0.0
2016-Jul-25 17:33N 37°46' W 122°15'0 0.0
2016-Jul-25 16:33N 37°46' W 122°15'0 0.0
2016-Jul-25 15:33N 37°46' W 122°15'0 0.0
2016-Jul-25 14:33N 37°46' W 122°15'0 0.0
2016-Jul-25 13:33N 37°46' W 122°15'0 0.0
2016-Jul-25 12:33N 37°46' W 122°15'0 0.0
2016-Jul-25 11:34N 37°46' W 122°15'0 0.0
2016-Jul-25 10:33N 37°46' W 122°15'0 0.0
2016-Jul-25 09:33N 37°46' W 122°15'0 0.0
2016-Jul-25 08:33N 37°46' W 122°15'0 0.0
2016-Jul-25 07:33N 37°46' W 122°15'0 0.0
2016-Jul-25 06:33N 37°46' W 122°15'0 0.0
2016-Jul-25 05:33N 37°46' W 122°15'0 0.0
2016-Jul-25 04:33N 37°46' W 122°15'0 0.0
2016-Jul-25 03:34N 37°46' W 122°15'0 0.0
2016-Jul-25 02:34N 37°46' W 122°15'0 0.0
2016-Jul-25 01:33N 37°46' W 122°15'0 0.0
2016-Jul-25 00:33N 37°46' W 122°15'0 0.0
2016-Jul-24 23:33N 37°46' W 122°15'0 0.0
2016-Jul-24 22:33N 37°46' W 122°15'0 0.0
2016-Jul-24 21:34N 37°46' W 122°15'0 0.0
2016-Jul-24 20:33N 37°46' W 122°15'0 0.0
2016-Jul-24 19:33N 37°46' W 122°15'0 0.0
2016-Jul-24 18:33N 37°46' W 122°15'0 0.0
2016-Jul-24 17:34N 37°46' W 122°15'0 0.0
2016-Jul-24 16:34N 37°46' W 122°15'0 0.0
2016-Jul-24 15:33N 37°46' W 122°15'0 0.0
2016-Jul-24 14:33N 37°46' W 122°15'0 0.0
2016-Jul-24 13:33N 37°46' W 122°15'0 0.0
2016-Jul-24 12:34N 37°46' W 122°15'0 0.0
2016-Jul-24 11:33N 37°46' W 122°15'0 0.0
2016-Jul-24 10:33N 37°46' W 122°15'0 0.0
2016-Jul-24 09:34N 37°46' W 122°15'0 0.0
2016-Jul-24 08:34N 37°46' W 122°15'0 0.0
2016-Jul-24 07:33N 37°46' W 122°15'0 0.0
2016-Jul-24 06:33N 37°46' W 122°15'0 0.0
2016-Jul-24 05:33N 37°46' W 122°15'0 0.0
2016-Jul-24 04:33N 37°46' W 122°15'0 0.0
2016-Jul-24 03:33N 37°46' W 122°15'0 0.0
2016-Jul-24 02:33N 37°46' W 122°15'0 0.0
2016-Jul-24 01:33N 37°46' W 122°15'0 0.0
2016-Jul-24 00:33N 37°46' W 122°15'0 0.0
2016-Jul-23 23:34N 37°46' W 122°15'0 0.0
2016-Jul-23 22:33N 37°46' W 122°15'0 0.0
2016-Jul-23 21:33N 37°46' W 122°15'0 0.0
2016-Jul-23 20:33N 37°46' W 122°15'0 0.0
2016-Jul-23 19:33N 37°46' W 122°15'0 0.0
2016-Jul-23 18:33N 37°46' W 122°15'0 0.0
2016-Jul-23 17:33N 37°46' W 122°15'0 0.0
2016-Jul-23 16:33N 37°46' W 122°15'0 0.0
2016-Jul-23 15:33N 37°46' W 122°15'0 0.0
2016-Jul-23 14:33N 37°46' W 122°15'0 0.0
2016-Jul-23 13:33N 37°46' W 122°15'0 0.0
2016-Jul-23 12:34N 37°46' W 122°15'0 0.0
2016-Jul-23 11:34N 37°46' W 122°15'0 0.0
2016-Jul-23 10:33N 37°46' W 122°15'0 0.0
2016-Jul-23 09:33N 37°46' W 122°15'0 0.0
2016-Jul-23 08:33N 37°46' W 122°15'0 0.0
2016-Jul-23 07:33N 37°46' W 122°15'0 0.0
2016-Jul-23 06:33N 37°46' W 122°15'0 0.0
2016-Jul-23 04:33N 37°46' W 122°15'0 0.0
2016-Jul-23 03:33N 37°46' W 122°15'0 0.0
2016-Jul-23 02:34N 37°46' W 122°15'0 0.0
2016-Jul-23 01:33N 37°46' W 122°15'0 0.0
2016-Jul-23 00:34N 37°46' W 122°15'0 0.0
2016-Jul-22 23:34N 37°46' W 122°15'0 0.0
2016-Jul-22 22:33N 37°46' W 122°15'0 0.0
2016-Jul-22 21:33N 37°46' W 122°15'3 2.5
2016-Jul-22 20:33N 37°48' W 122°17'0 0.2
2016-Jul-22 19:33N 37°48' W 122°17'2 2.4
2016-Jul-22 18:33N 37°46' W 122°15'0 0.0
2016-Jul-22 17:33N 37°46' W 122°15'0 0.0
2016-Jul-22 16:32N 37°46' W 122°15'0 0.0
2016-Jul-22 15:33N 37°46' W 122°15'0 0.0
2016-Jul-22 14:33N 37°46' W 122°15'0 0.0
2016-Jul-22 13:33N 37°46' W 122°15'0 0.0
2016-Jul-22 12:33N 37°46' W 122°15'0 0.0
2016-Jul-22 11:33N 37°46' W 122°15'0 0.0
2016-Jul-22 10:33N 37°46' W 122°15'0 0.0
2016-Jul-22 09:33N 37°46' W 122°15'0 0.0
2016-Jul-22 08:28N 37°46' W 122°15'0 0.0
2016-Jul-22 07:33N 37°46' W 122°15'0 0.0
2016-Jul-22 04:33N 37°46' W 122°15'0 0.0
2016-Jul-22 03:33N 37°46' W 122°15'0 0.0
2016-Jul-22 02:33N 37°46' W 122°15'0 0.0
2016-Jul-22 01:33N 37°46' W 122°15'0 0.0
2016-Jul-22 00:33N 37°46' W 122°15'0 0.0
2016-Jul-21 23:33N 37°46' W 122°15'0 0.0
2016-Jul-21 22:33N 37°46' W 122°15'0 0.0
2016-Jul-21 21:33N 37°46' W 122°15'0 0.0
2016-Jul-21 20:33N 37°46' W 122°15'0 0.0
2016-Jul-21 19:32N 37°46' W 122°15'0 0.0
2016-Jul-21 18:32N 37°46' W 122°15'0 0.0
2016-Jul-21 17:33N 37°46' W 122°15'0 0.0
2016-Jul-21 16:33N 37°46' W 122°15'0 0.0
2016-Jul-21 15:33N 37°46' W 122°15'0 0.0
2016-Jul-21 14:33N 37°46' W 122°15'0 0.0
2016-Jul-21 13:33N 37°46' W 122°15'0 0.0
2016-Jul-21 12:33N 37°46' W 122°15'0 0.0
2016-Jul-21 11:33N 37°46' W 122°15'0 0.0
2016-Jul-21 10:33N 37°46' W 122°15'0 0.0
2016-Jul-21 09:33N 37°46' W 122°15'0 0.0
2016-Jul-21 08:33N 37°46' W 122°15'0 0.0
2016-Jul-21 07:33N 37°46' W 122°15'0 0.0
2016-Jul-21 06:33N 37°46' W 122°15'0 0.0
2016-Jul-21 05:32N 37°46' W 122°15'0 0.0
2016-Jul-21 04:33N 37°46' W 122°15'0 0.0
2016-Jul-21 03:33N 37°46' W 122°15'0 0.0
2016-Jul-21 02:32N 37°46' W 122°15'0 0.0
2016-Jul-21 01:33N 37°46' W 122°15'0 0.0
2016-Jul-21 00:33N 37°46' W 122°15'0 0.0
2016-Jul-20 23:33N 37°46' W 122°15'0 0.0
2016-Jul-20 22:33N 37°46' W 122°15'0 0.0
2016-Jul-20 21:32N 37°46' W 122°15'0 0.0
2016-Jul-20 20:33N 37°46' W 122°15'0 0.0
2016-Jul-20 19:30N 37°46' W 122°15'0 0.0
2016-Jul-20 18:32N 37°46' W 122°15'0 0.0
2016-Jul-20 17:32N 37°46' W 122°15'0 0.0
2016-Jul-20 16:33N 37°46' W 122°15'0 0.0
2016-Jul-20 15:33N 37°46' W 122°15'0 0.0
2016-Jul-20 14:33N 37°46' W 122°15'0 0.0
2016-Jul-20 13:33N 37°46' W 122°15'0 0.0
2016-Jul-20 12:29N 37°46' W 122°15'0 0.0
2016-Jul-20 11:30N 37°46' W 122°15'0 0.0
2016-Jul-20 10:33N 37°46' W 122°15'0 0.0
2016-Jul-20 09:28N 37°46' W 122°15'0 0.0
2016-Jul-20 08:33N 37°46' W 122°15'0 0.0
2016-Jul-20 07:33N 37°46' W 122°15'0 0.0
2016-Jul-20 06:33N 37°46' W 122°15'0 0.0
2016-Jul-20 05:33N 37°46' W 122°15'0 0.0
2016-Jul-20 04:31N 37°46' W 122°15'0 0.0
2016-Jul-20 03:25N 37°46' W 122°15'0 0.0
2016-Jul-20 02:31N 37°46' W 122°15'0 0.0
2016-Jul-20 01:33N 37°46' W 122°15'0 0.0
2016-Jul-20 00:33N 37°46' W 122°15'0 0.0
2016-Jul-19 19:33N 37°46' W 122°15'0 0.0
2016-Jul-19 18:31N 37°46' W 122°15'0 0.0
2016-Jul-19 17:33N 37°46' W 122°15'0 0.0
2016-Jul-19 12:09N 37°46' W 122°15'0 0.0
2016-Jul-19 11:09N 37°46' W 122°15'0 0.0
2016-Jul-19 02:18N 37°46' W 122°15'0 0.0
2016-Jul-19 01:30N 37°46' W 122°15'0 0.0
2016-Jul-18 20:08N 37°46' W 122°15'0 0.0
2016-Jul-18 19:25N 37°46' W 122°15'0 0.0
2016-Jul-18 18:33N 37°46' W 122°15'0 0.0
2016-Jul-18 17:32N 37°46' W 122°15'0 0.0
2016-Jul-18 10:28N 37°46' W 122°15'0 0.0
2016-Jul-18 09:32N 37°46' W 122°15'0 0.0
2016-Jul-18 08:28N 37°46' W 122°15'0 0.0
2016-Jul-18 07:31N 37°46' W 122°15'0 0.0
2016-Jul-18 06:33N 37°46' W 122°15'  
Track history (hours):
 
Tides and Currents Weather Stations Pressure Air Temp Water Temp Dewpoint Dewpoint Depression Visibility Wind Speed Wind Dir Waves Ship Positions

Arthur Brusco

Owner: Brusco Tug & Barge, Inc, Longview, WA. More information available from US FCC via Universal Licensing System and Coast Guard Vessel Documentation Center.

Last reported at 2016-Jul-28 02:33 UTC. Time now 2016-Jul-28 02:56 UTC.
Position N 37°49' W 122°29'.

Length 35 m; draft 3.2 m.

Type: Other ship. MMSI: 271040404.

Date/timePositionNaut miles runAvg speedWind from/ knotsBaromVisibWave heightAir tempDewpointWater temp
2016-Jul-28 02:33N 37°49' W 122°29'4 4.3
2016-Jul-28 01:33N 37°49' W 122°24'1 1.1
2016-Jul-28 00:33N 37°50' W 122°23'1 1.4
2016-Jul-27 23:33N 37°50' W 122°21'5 4.6
2016-Jul-27 22:33N 37°54' W 122°25'3 2.6
2016-Jul-27 21:33N 37°55' W 122°22'0 0.0
2016-Jul-27 20:33N 37°55' W 122°22'0 0.0
2016-Jul-27 19:33N 37°55' W 122°22'0 0.0
2016-Jul-27 18:24N 37°55' W 122°22'3 3.2
2016-Jul-27 17:33N 37°53' W 122°25'5 4.9
2016-Jul-27 16:34N 37°49' W 122°24'0 0.2
2016-Jul-27 15:33N 37°48' W 122°24'2 2.4
2016-Jul-27 14:33N 37°50' W 122°21'0 0.3
2016-Jul-27 13:33N 37°50' W 122°22'7 7.4
2016-Jul-27 12:33N 37°48' W 122°31'9 8.7
2016-Jul-27 11:33N 37°44' W 122°41'8 8.3
2016-Jul-27 10:33N 37°40' W 122°50'9 8.7
2016-Jul-27 09:33N 37°35' W 122°59'8 8.2
2016-Jul-27 08:33N 37°34' W 123°09'9 9.1
2016-Jul-27 07:33N 37°36' W 123°20'8 7.7
2016-Jul-27 06:33N 37°39' W 123°29'6 6.4
2016-Jul-27 05:33N 37°38' W 123°21'7 7.0
2016-Jul-27 04:33N 37°37' W 123°12'7 6.8
2016-Jul-27 03:33N 37°36' W 123°04'7 7.4
2016-Jul-27 02:33N 37°39' W 122°55'8 8.1
2016-Jul-27 01:33N 37°43' W 122°46'8 7.6
2016-Jul-27 00:33N 37°46' W 122°37'7 6.9
2016-Jul-26 23:33N 37°49' W 122°30'5 4.6
2016-Jul-26 22:34N 37°49' W 122°24'0 0.3
2016-Jul-26 21:33N 37°48' W 122°24'7 7.3
2016-Jul-26 20:33N 37°47' W 122°15'0 0.1
2016-Jul-26 19:33N 37°46' W 122°15'0 0.0
2016-Jul-26 18:33N 37°46' W 122°15'0 0.0
2016-Jul-26 17:33N 37°46' W 122°15'0 0.0
2016-Jul-26 16:33N 37°46' W 122°15'0 0.0
2016-Jul-26 15:33N 37°46' W 122°15'0 0.0
2016-Jul-26 14:33N 37°46' W 122°15'0 0.0
2016-Jul-26 13:33N 37°46' W 122°15'0 0.0
2016-Jul-26 12:33N 37°46' W 122°15'0 0.0
2016-Jul-26 11:33N 37°46' W 122°15'0 0.0
2016-Jul-26 10:34N 37°46' W 122°15'0 0.0
2016-Jul-26 09:33N 37°46' W 122°15'0 0.0
2016-Jul-26 08:33N 37°46' W 122°15'0 0.0
2016-Jul-26 07:34N 37°46' W 122°15'0 0.0
2016-Jul-26 06:34N 37°46' W 122°15'0 0.0
2016-Jul-26 05:34N 37°46' W 122°15'0 0.0
2016-Jul-26 04:33N 37°46' W 122°15'0 0.0
2016-Jul-26 03:33N 37°46' W 122°15'0 0.0
2016-Jul-26 02:33N 37°46' W 122°15'0 0.0
2016-Jul-26 01:33N 37°46' W 122°15'0 0.0
2016-Jul-26 00:33N 37°46' W 122°15'0 0.0
2016-Jul-25 23:33N 37°46' W 122°15'0 0.0
2016-Jul-25 22:34N 37°46' W 122°15'0 0.0
2016-Jul-25 21:33N 37°46' W 122°15'0 0.0
2016-Jul-25 20:34N 37°46' W 122°15'0 0.0
2016-Jul-25 19:33N 37°46' W 122°15'0 0.0
2016-Jul-25 18:33N 37°46' W 122°15'0 0.0
2016-Jul-25 17:33N 37°46' W 122°15'0 0.0
2016-Jul-25 16:33N 37°46' W 122°15'0 0.0
2016-Jul-25 15:33N 37°46' W 122°15'0 0.0
2016-Jul-25 14:33N 37°46' W 122°15'0 0.0
2016-Jul-25 13:33N 37°46' W 122°15'0 0.0
2016-Jul-25 12:33N 37°46' W 122°15'0 0.0
2016-Jul-25 11:34N 37°46' W 122°15'0 0.0
2016-Jul-25 10:33N 37°46' W 122°15'0 0.0
2016-Jul-25 09:33N 37°46' W 122°15'0 0.0
2016-Jul-25 08:33N 37°46' W 122°15'0 0.0
2016-Jul-25 07:33N 37°46' W 122°15'0 0.0
2016-Jul-25 06:33N 37°46' W 122°15'0 0.0
2016-Jul-25 05:33N 37°46' W 122°15'0 0.0
2016-Jul-25 04:33N 37°46' W 122°15'0 0.0
2016-Jul-25 03:34N 37°46' W 122°15'0 0.0
2016-Jul-25 02:34N 37°46' W 122°15'0 0.0
2016-Jul-25 01:33N 37°46' W 122°15'0 0.0
2016-Jul-25 00:33N 37°46' W 122°15'0 0.0
2016-Jul-24 23:33N 37°46' W 122°15'0 0.0
2016-Jul-24 22:33N 37°46' W 122°15'0 0.0
2016-Jul-24 21:34N 37°46' W 122°15'0 0.0
2016-Jul-24 20:33N 37°46' W 122°15'0 0.0
2016-Jul-24 19:33N 37°46' W 122°15'0 0.0
2016-Jul-24 18:33N 37°46' W 122°15'0 0.0
2016-Jul-24 17:34N 37°46' W 122°15'0 0.0
2016-Jul-24 16:34N 37°46' W 122°15'0 0.0
2016-Jul-24 15:33N 37°46' W 122°15'0 0.0
2016-Jul-24 14:33N 37°46' W 122°15'0 0.0
2016-Jul-24 13:33N 37°46' W 122°15'0 0.0
2016-Jul-24 12:34N 37°46' W 122°15'0 0.0
2016-Jul-24 11:33N 37°46' W 122°15'0 0.0
2016-Jul-24 10:33N 37°46' W 122°15'0 0.0
2016-Jul-24 09:34N 37°46' W 122°15'0 0.0
2016-Jul-24 08:34N 37°46' W 122°15'0 0.0
2016-Jul-24 07:33N 37°46' W 122°15'0 0.0
2016-Jul-24 06:33N 37°46' W 122°15'0 0.0
2016-Jul-24 05:33N 37°46' W 122°15'0 0.0
2016-Jul-24 04:33N 37°46' W 122°15'0 0.0
2016-Jul-24 03:33N 37°46' W 122°15'0 0.0
2016-Jul-24 02:33N 37°46' W 122°15'0 0.0
2016-Jul-24 01:33N 37°46' W 122°15'0 0.0
2016-Jul-24 00:33N 37°46' W 122°15'0 0.0
2016-Jul-23 23:34N 37°46' W 122°15'0 0.0
2016-Jul-23 22:33N 37°46' W 122°15'0 0.0
2016-Jul-23 21:33N 37°46' W 122°15'0 0.0
2016-Jul-23 20:33N 37°46' W 122°15'0 0.0
2016-Jul-23 19:33N 37°46' W 122°15'0 0.0
2016-Jul-23 18:33N 37°46' W 122°15'0 0.0
2016-Jul-23 17:33N 37°46' W 122°15'0 0.0
2016-Jul-23 16:33N 37°46' W 122°15'0 0.0
2016-Jul-23 15:33N 37°46' W 122°15'0 0.0
2016-Jul-23 14:33N 37°46' W 122°15'0 0.0
2016-Jul-23 13:33N 37°46' W 122°15'0 0.0
2016-Jul-23 12:34N 37°46' W 122°15'0 0.0
2016-Jul-23 11:34N 37°46' W 122°15'0 0.0
2016-Jul-23 10:33N 37°46' W 122°15'0 0.0
2016-Jul-23 09:33N 37°46' W 122°15'0 0.0
2016-Jul-23 08:33N 37°46' W 122°15'0 0.0
2016-Jul-23 07:33N 37°46' W 122°15'0 0.0
2016-Jul-23 06:33N 37°46' W 122°15'0 0.0
2016-Jul-23 04:33N 37°46' W 122°15'0 0.0
2016-Jul-23 03:33N 37°46' W 122°15'0 0.0
2016-Jul-23 02:34N 37°46' W 122°15'0 0.0
2016-Jul-23 01:33N 37°46' W 122°15'0 0.0
2016-Jul-23 00:34N 37°46' W 122°15'0 0.0
2016-Jul-22 23:34N 37°46' W 122°15'0 0.0
2016-Jul-22 22:33N 37°46' W 122°15'0 0.0
2016-Jul-22 21:33N 37°46' W 122°15'3 2.5
2016-Jul-22 20:33N 37°48' W 122°17'0 0.2
2016-Jul-22 19:33N 37°48' W 122°17'2 2.4
2016-Jul-22 18:33N 37°46' W 122°15'0 0.0
2016-Jul-22 17:33N 37°46' W 122°15'0 0.0
2016-Jul-22 16:32N 37°46' W 122°15'0 0.0
2016-Jul-22 15:33N 37°46' W 122°15'0 0.0
2016-Jul-22 14:33N 37°46' W 122°15'0 0.0
2016-Jul-22 13:33N 37°46' W 122°15'0 0.0
2016-Jul-22 12:33N 37°46' W 122°15'0 0.0
2016-Jul-22 11:33N 37°46' W 122°15'0 0.0
2016-Jul-22 10:33N 37°46' W 122°15'0 0.0
2016-Jul-22 09:33N 37°46' W 122°15'0 0.0
2016-Jul-22 08:28N 37°46' W 122°15'0 0.0
2016-Jul-22 07:33N 37°46' W 122°15'0 0.0
2016-Jul-22 04:33N 37°46' W 122°15'0 0.0
2016-Jul-22 03:33N 37°46' W 122°15'0 0.0
2016-Jul-22 02:33N 37°46' W 122°15'0 0.0
2016-Jul-22 01:33N 37°46' W 122°15'0 0.0
2016-Jul-22 00:33N 37°46' W 122°15'0 0.0
2016-Jul-21 23:33N 37°46' W 122°15'0 0.0
2016-Jul-21 22:33N 37°46' W 122°15'0 0.0
2016-Jul-21 21:33N 37°46' W 122°15'0 0.0
2016-Jul-21 20:33N 37°46' W 122°15'0 0.0
2016-Jul-21 19:32N 37°46' W 122°15'0 0.0
2016-Jul-21 18:32N 37°46' W 122°15'0 0.0
2016-Jul-21 17:33N 37°46' W 122°15'0 0.0
2016-Jul-21 16:33N 37°46' W 122°15'0 0.0
2016-Jul-21 15:33N 37°46' W 122°15'0 0.0
2016-Jul-21 14:33N 37°46' W 122°15'0 0.0
2016-Jul-21 13:33N 37°46' W 122°15'0 0.0
2016-Jul-21 12:33N 37°46' W 122°15'0 0.0
2016-Jul-21 11:33N 37°46' W 122°15'0 0.0
2016-Jul-21 10:33N 37°46' W 122°15'0 0.0
2016-Jul-21 09:33N 37°46' W 122°15'0 0.0
2016-Jul-21 08:33N 37°46' W 122°15'0 0.0
2016-Jul-21 07:33N 37°46' W 122°15'0 0.0
2016-Jul-21 06:33N 37°46' W 122°15'0 0.0
2016-Jul-21 05:32N 37°46' W 122°15'0 0.0
2016-Jul-21 04:33N 37°46' W 122°15'0 0.0
2016-Jul-21 03:33N 37°46' W 122°15'0 0.0
2016-Jul-21 02:32N 37°46' W 122°15'0 0.0
2016-Jul-21 01:33N 37°46' W 122°15'0 0.0
2016-Jul-21 00:33N 37°46' W 122°15'0 0.0
2016-Jul-20 23:33N 37°46' W 122°15'0 0.0
2016-Jul-20 22:33N 37°46' W 122°15'0 0.0
2016-Jul-20 21:32N 37°46' W 122°15'0 0.0
2016-Jul-20 20:33N 37°46' W 122°15'0 0.0
2016-Jul-20 19:30N 37°46' W 122°15'0 0.0
2016-Jul-20 18:32N 37°46' W 122°15'0 0.0
2016-Jul-20 17:32N 37°46' W 122°15'0 0.0
2016-Jul-20 16:33N 37°46' W 122°15'0 0.0
2016-Jul-20 15:33N 37°46' W 122°15'0 0.0
2016-Jul-20 14:33N 37°46' W 122°15'0 0.0
2016-Jul-20 13:33N 37°46' W 122°15'0 0.0
2016-Jul-20 12:29N 37°46' W 122°15'0 0.0
2016-Jul-20 11:30N 37°46' W 122°15'0 0.0
2016-Jul-20 10:33N 37°46' W 122°15'0 0.0
2016-Jul-20 09:28N 37°46' W 122°15'0 0.0
2016-Jul-20 08:33N 37°46' W 122°15'0 0.0
2016-Jul-20 07:33N 37°46' W 122°15'0 0.0
2016-Jul-20 06:33N 37°46' W 122°15'0 0.0
2016-Jul-20 05:33N 37°46' W 122°15'0 0.0
2016-Jul-20 04:31N 37°46' W 122°15'0 0.0
2016-Jul-20 03:25N 37°46' W 122°15'0 0.0
2016-Jul-20 02:31N 37°46' W 122°15'0 0.0
2016-Jul-20 01:33N 37°46' W 122°15'0 0.0
2016-Jul-20 00:33N 37°46' W 122°15'0 0.0
2016-Jul-19 19:33N 37°46' W 122°15'0 0.0
2016-Jul-19 18:31N 37°46' W 122°15'0 0.0
2016-Jul-19 17:33N 37°46' W 122°15'0 0.0
2016-Jul-19 12:09N 37°46' W 122°15'0 0.0
2016-Jul-19 11:09N 37°46' W 122°15'0 0.0
2016-Jul-19 02:18N 37°46' W 122°15'0 0.0
2016-Jul-19 01:30N 37°46' W 122°15'0 0.0
2016-Jul-18 20:08N 37°46' W 122°15'0 0.0
2016-Jul-18 19:25N 37°46' W 122°15'0 0.0
2016-Jul-18 18:33N 37°46' W 122°15'0 0.0
2016-Jul-18 17:32N 37°46' W 122°15'0 0.0
2016-Jul-18 10:28N 37°46' W 122°15'0 0.0
2016-Jul-18 09:32N 37°46' W 122°15'0 0.0
2016-Jul-18 08:28N 37°46' W 122°15'0 0.0
2016-Jul-18 07:31N 37°46' W 122°15'0 0.0
2016-Jul-18 06:33N 37°46' W 122°15'  

Dump ship's entire track history